createdAt,value
2018-05-10T00:02:16.128Z,60.70
2018-05-10T00:04:45.145Z,57.63
2018-05-10T00:07:13.991Z,58.20
2018-05-10T00:09:43.595Z,57.07
2018-05-10T00:12:12.989Z,66.80
2018-05-10T00:14:41.697Z,55.57
2018-05-10T00:17:10.620Z,61.57
2018-05-10T00:19:40.286Z,60.57
2018-05-10T00:22:09.257Z,68.83
2018-05-10T00:24:38.079Z,78.93
2018-05-10T00:27:07.097Z,87.13
2018-05-10T00:29:35.982Z,95.57
2018-05-10T00:32:04.937Z,89.23
2018-05-10T00:34:34.699Z,101.10
2018-05-10T00:37:03.586Z,105.17
2018-05-10T00:39:32.452Z,87.20
2018-05-10T00:42:01.475Z,84.53
2018-05-10T00:47:16.456Z,63.87
2018-05-10T00:49:45.642Z,48.07
2018-05-10T00:52:15.678Z,51.33
2018-05-10T00:54:54.445Z,48.47
2018-05-10T00:57:23.557Z,58.80
2018-05-10T00:59:52.290Z,61.93
2018-05-10T01:02:22.089Z,66.57
2018-05-10T01:04:51.349Z,69.10
2018-05-10T01:07:20.954Z,70.00
2018-05-10T01:09:49.964Z,61.60
2018-05-10T01:12:18.833Z,54.63
2018-05-10T01:14:48.600Z,50.43
2018-05-10T01:17:17.653Z,48.43
2018-05-10T01:19:46.437Z,46.83
2018-05-10T01:22:16.041Z,42.77
2018-05-10T01:24:44.977Z,45.63
2018-05-10T01:27:13.875Z,45.30
2018-05-10T01:29:42.825Z,43.33
2018-05-10T01:32:12.326Z,44.90
2018-05-10T01:34:41.407Z,43.43
2018-05-10T01:37:10.138Z,39.20
2018-05-10T01:39:39.010Z,52.60
2018-05-10T01:42:07.949Z,68.10
2018-05-10T01:44:36.987Z,50.53
2018-05-10T01:47:05.797Z,50.40
2018-05-10T01:49:34.655Z,48.57
2018-05-10T01:52:04.500Z,44.33
2018-05-10T01:54:33.265Z,48.13
2018-05-10T01:57:03.071Z,52.80
2018-05-10T01:59:31.886Z,49.23
2018-05-10T02:02:00.649Z,50.40
2018-05-10T02:04:29.574Z,55.30
2018-05-10T02:06:58.689Z,49.43
2018-05-10T02:09:27.869Z,52.90
2018-05-10T02:11:56.915Z,58.87
2018-05-10T02:14:25.849Z,67.40
2018-05-10T02:16:54.750Z,56.47
2018-05-10T02:19:23.651Z,61.17
2018-05-10T02:21:53.095Z,62.20
2018-05-10T02:24:22.048Z,59.17
2018-05-10T02:26:51.329Z,62.50
2018-05-10T02:29:20.052Z,54.37
2018-05-10T02:31:49.082Z,56.30
2018-05-10T02:34:18.005Z,55.90
2018-05-10T02:36:46.862Z,48.07
2018-05-10T02:39:15.845Z,52.13
2018-05-10T02:41:44.692Z,56.77
2018-05-10T02:44:13.767Z,51.00
2018-05-10T02:46:42.742Z,51.30
2018-05-10T02:49:11.731Z,49.47
2018-05-10T02:51:40.747Z,48.23
2018-05-10T02:54:09.570Z,53.53
2018-05-10T02:56:38.753Z,67.17
2018-05-10T02:59:07.796Z,65.33
2018-05-10T03:01:37.409Z,80.80
2018-05-10T03:04:07.112Z,69.60
2018-05-10T03:06:36.801Z,65.07
2018-05-10T03:09:05.707Z,81.40
2018-05-10T03:11:34.665Z,75.27
2018-05-10T03:14:03.562Z,69.73
2018-05-10T03:16:33.902Z,72.80
2018-05-10T03:19:03.479Z,98.00
2018-05-10T03:21:33.204Z,94.40
2018-05-10T03:24:02.290Z,88.87
2018-05-10T03:26:31.258Z,104.17
2018-05-10T03:29:00.506Z,109.83
2018-05-10T03:31:30.166Z,100.17
2018-05-10T03:33:59.094Z,93.77
2018-05-10T03:36:27.802Z,97.43
2018-05-10T03:38:57.410Z,102.80
2018-05-10T03:41:27.069Z,84.63
2018-05-10T03:43:56.189Z,74.20
2018-05-10T03:46:25.116Z,71.17
2018-05-10T03:48:55.065Z,62.57
2018-05-10T03:51:23.943Z,61.57
2018-05-10T03:53:52.950Z,53.00
2018-05-10T03:56:21.941Z,47.80
2018-05-10T03:58:50.783Z,56.87
2018-05-10T04:01:19.715Z,52.67
2018-05-10T04:07:04.638Z,50.57
2018-05-10T04:09:46.038Z,52.87
2018-05-10T04:12:14.782Z,55.17
2018-05-10T04:14:43.930Z,55.20
2018-05-10T04:17:13.510Z,59.83
2018-05-10T04:19:42.362Z,49.57
2018-05-10T04:22:12.082Z,48.20
2018-05-10T04:24:41.875Z,49.10
2018-05-10T04:27:10.814Z,48.13
2018-05-10T04:29:40.871Z,52.67
2018-05-10T04:32:10.966Z,52.40
2018-05-10T04:34:39.983Z,54.80
2018-05-10T04:37:08.966Z,50.37
2018-05-10T04:39:38.877Z,50.83
2018-05-10T04:42:08.551Z,64.63
2018-05-10T04:44:37.695Z,60.93
2018-05-10T04:47:07.364Z,120.40
2018-05-10T04:49:38.195Z,92.83
2018-05-10T04:52:07.631Z,72.77
2018-05-10T04:54:36.497Z,66.03
2018-05-10T04:57:05.467Z,81.77
2018-05-10T04:59:34.471Z,67.07
2018-05-10T05:02:04.396Z,111.77
2018-05-10T05:04:33.433Z,71.80
2018-05-10T05:07:03.071Z,63.30
2018-05-10T05:09:32.354Z,64.90
2018-05-10T05:12:01.652Z,62.33
2018-05-10T05:14:31.441Z,60.00
2018-05-10T05:17:01.101Z,56.10
2018-05-10T05:19:30.201Z,62.17
2018-05-10T05:21:59.142Z,61.07
2018-05-10T05:24:29.064Z,63.90
2018-05-10T05:26:58.751Z,57.53
2018-05-10T05:29:27.887Z,53.57
2018-05-10T05:31:56.908Z,45.33
2018-05-10T05:34:25.921Z,41.80
2018-05-10T05:36:56.122Z,43.00
2018-05-10T05:39:25.194Z,42.50
2018-05-10T05:41:53.990Z,45.23
2018-05-10T05:44:23.257Z,46.70
2018-05-10T05:46:52.222Z,56.57
2018-05-10T05:49:21.297Z,60.73
2018-05-10T05:51:51.040Z,44.77
2018-05-10T05:54:20.201Z,45.13
2018-05-10T05:56:48.969Z,39.83
2018-05-10T05:59:17.763Z,50.87
2018-05-10T06:01:46.488Z,33.97
2018-05-10T06:04:15.320Z,44.93
2018-05-10T06:06:44.276Z,33.70
2018-05-10T06:09:13.469Z,109.23
2018-05-10T06:11:42.991Z,50.97
2018-05-10T06:14:11.821Z,40.47
2018-05-10T06:16:40.817Z,45.07
2018-05-10T06:19:09.992Z,50.70
2018-05-10T06:21:39.665Z,41.57
2018-05-10T06:24:09.271Z,39.27
2018-05-10T06:26:39.177Z,64.50
2018-05-10T06:29:07.914Z,40.83
2018-05-10T06:31:37.449Z,40.83
2018-05-10T06:34:06.328Z,36.33
2018-05-10T06:36:35.141Z,40.10
2018-05-10T06:39:04.124Z,30.63
2018-05-10T06:41:33.104Z,47.53
2018-05-10T06:44:03.071Z,23.50
2018-05-10T06:46:32.726Z,30.13
2018-05-10T06:49:01.549Z,45.97
2018-05-10T06:51:30.754Z,31.07
2018-05-10T06:53:59.647Z,31.90
2018-05-10T06:56:28.529Z,47.17
2018-05-10T06:59:00.448Z,24.13
2018-05-10T07:01:31.206Z,24.57
2018-05-10T07:04:00.068Z,29.33
2018-05-10T07:06:28.970Z,32.53
2018-05-10T07:08:57.853Z,24.70
2018-05-10T07:11:26.727Z,29.77
2018-05-10T07:13:56.690Z,36.97
2018-05-10T07:16:25.630Z,26.77
2018-05-10T07:18:55.378Z,30.60
2018-05-10T07:21:24.142Z,20.20
2018-05-10T07:23:53.884Z,15.80
2018-05-10T07:26:22.850Z,15.37
2018-05-10T07:28:51.648Z,16.77
2018-05-10T07:31:20.693Z,22.97
2018-05-10T07:33:50.620Z,13.77
2018-05-10T07:36:19.517Z,27.17
2018-05-10T07:38:48.350Z,16.70
2018-05-10T07:41:17.234Z,15.07
2018-05-10T07:43:46.096Z,15.73
2018-05-10T07:46:15.050Z,21.50
2018-05-10T07:48:44.005Z,27.93
2018-05-10T07:51:13.050Z,18.97
2018-05-10T07:53:41.957Z,17.90
2018-05-10T07:56:10.830Z,13.60
2018-05-10T07:58:40.427Z,18.60
2018-05-10T08:01:10.033Z,23.90
2018-05-10T08:03:38.866Z,22.87
2018-05-10T08:06:08.127Z,24.70
2018-05-10T08:08:38.242Z,26.37
2018-05-10T08:11:07.208Z,18.70
2018-05-10T08:13:36.856Z,33.60
2018-05-10T08:16:06.179Z,26.83
2018-05-10T08:18:36.475Z,19.87
2018-05-10T08:21:06.108Z,31.67
2018-05-10T08:23:46.935Z,19.93
2018-05-10T08:26:16.104Z,17.80
2018-05-10T08:28:47.619Z,20.47
2018-05-10T08:31:16.612Z,21.47
2018-05-10T08:33:46.225Z,19.07
2018-05-10T08:36:15.262Z,20.17
2018-05-10T08:38:44.128Z,17.70
2018-05-10T08:41:13.141Z,25.33
2018-05-10T08:43:42.028Z,20.23
2018-05-10T08:46:10.873Z,22.97
2018-05-10T08:48:40.089Z,20.20
2018-05-10T08:51:08.869Z,15.47
2018-05-10T08:53:38.427Z,17.97
2018-05-10T08:56:08.602Z,17.33
2018-05-10T08:58:37.533Z,16.27
2018-05-10T09:01:06.428Z,16.30
2018-05-10T09:03:35.090Z,16.30
2018-05-10T09:06:04.052Z,30.13
2018-05-10T09:08:33.056Z,21.70
2018-05-10T09:11:02.662Z,22.20
2018-05-10T09:13:31.368Z,25.00
2018-05-10T09:16:00.132Z,20.07
2018-05-10T09:18:28.940Z,22.47
2018-05-10T09:20:58.217Z,27.57
2018-05-10T09:23:27.874Z,22.07
2018-05-10T09:25:56.733Z,20.67
2018-05-10T09:28:26.658Z,21.37
2018-05-10T09:30:55.800Z,21.43
2018-05-10T09:33:24.783Z,42.43
2018-05-10T09:35:53.916Z,35.30
2018-05-10T09:38:23.565Z,29.20
2018-05-10T09:40:53.016Z,25.30
2018-05-10T09:43:22.029Z,20.90
2018-05-10T09:45:50.797Z,26.70
2018-05-10T09:48:20.691Z,29.50
2018-05-10T09:50:49.613Z,25.83
2018-05-10T09:53:19.278Z,28.63
2018-05-10T09:55:48.193Z,25.80
2018-05-10T09:58:16.945Z,30.60
2018-05-10T10:00:45.764Z,27.20
2018-05-10T10:03:14.929Z,29.77
2018-05-10T10:05:43.989Z,26.33
2018-05-10T10:08:12.774Z,25.87
2018-05-10T10:10:41.755Z,22.60
2018-05-10T10:13:10.785Z,24.87
2018-05-10T10:15:39.703Z,28.17
2018-05-10T10:18:08.621Z,25.23
2018-05-10T10:20:38.608Z,31.13
2018-05-10T10:23:07.465Z,21.30
2018-05-10T10:25:36.396Z,26.00
2018-05-10T10:28:05.133Z,27.27
2018-05-10T10:30:34.241Z,23.23
2018-05-10T10:33:03.047Z,24.33
2018-05-10T10:35:31.984Z,25.60
2018-05-10T10:38:01.480Z,23.63
2018-05-10T10:40:30.759Z,21.37
2018-05-10T10:43:00.626Z,25.27
2018-05-10T10:45:29.790Z,23.90
2018-05-10T10:47:59.428Z,22.13
2018-05-10T10:50:29.048Z,24.53
2018-05-10T10:52:59.033Z,21.93
2018-05-10T10:55:28.696Z,23.70
2018-05-10T10:57:58.197Z,22.00
2018-05-10T11:00:27.552Z,34.30
2018-05-10T11:02:56.434Z,24.33
2018-05-10T11:05:26.315Z,20.57
2018-05-10T11:07:55.203Z,22.40
2018-05-10T11:10:24.089Z,22.37
2018-05-10T11:12:52.909Z,21.67
2018-05-10T11:15:21.862Z,21.97
2018-05-10T11:17:50.711Z,28.10
2018-05-10T11:20:19.485Z,19.47
2018-05-10T11:22:48.453Z,18.57
2018-05-10T11:25:17.439Z,17.07
2018-05-10T11:27:46.384Z,18.30
2018-05-10T11:30:16.486Z,22.30
2018-05-10T11:32:45.394Z,16.43
2018-05-10T11:35:14.405Z,19.87
2018-05-10T11:37:43.529Z,17.30
2018-05-10T11:40:12.356Z,17.70
2018-05-10T11:42:41.121Z,20.97
2018-05-10T11:45:09.981Z,21.87
2018-05-10T11:47:38.800Z,20.70
2018-05-10T11:50:07.567Z,22.27
2018-05-10T11:52:36.489Z,19.40
2018-05-10T11:55:05.476Z,20.43
2018-05-10T11:57:34.355Z,16.07
2018-05-10T12:00:03.494Z,17.73
2018-05-10T12:02:32.243Z,16.73
2018-05-10T12:05:01.122Z,17.37
2018-05-10T12:07:30.909Z,16.20
2018-05-10T12:09:59.982Z,16.57
2018-05-10T12:12:29.671Z,22.63
2018-05-10T12:14:58.487Z,17.57
2018-05-10T12:17:28.166Z,18.37
2018-05-10T12:19:57.042Z,14.10
2018-05-10T12:22:25.846Z,11.07
2018-05-10T12:24:55.522Z,13.50
2018-05-10T12:27:24.322Z,11.87
2018-05-10T12:29:53.266Z,11.87
2018-05-10T12:32:22.819Z,9.80
2018-05-10T12:34:51.646Z,12.37
2018-05-10T12:37:20.624Z,11.87
2018-05-10T12:39:49.425Z,9.77
2018-05-10T12:42:19.197Z,10.33
2018-05-10T12:44:48.114Z,12.33
2018-05-10T12:47:18.117Z,10.50
2018-05-10T12:49:46.937Z,7.93
2018-05-10T12:52:16.618Z,11.30
2018-05-10T12:54:45.530Z,15.03
2018-05-10T12:57:15.069Z,13.37
2018-05-10T12:59:43.924Z,11.33
2018-05-10T13:02:13.706Z,11.77
2018-05-10T13:04:42.672Z,10.20
2018-05-10T13:07:12.353Z,13.93
2018-05-10T13:09:42.352Z,11.47
2018-05-10T13:12:12.049Z,12.83
2018-05-10T13:14:41.740Z,11.93
2018-05-10T13:17:10.701Z,10.37
2018-05-10T13:19:40.855Z,9.67
2018-05-10T13:22:10.083Z,11.67
2018-05-10T13:24:38.951Z,14.07
2018-05-10T13:27:07.897Z,9.07
2018-05-10T13:29:36.857Z,7.30
2018-05-10T13:32:05.822Z,11.77
2018-05-10T13:34:34.761Z,10.37
2018-05-10T13:37:04.819Z,11.00
2018-05-10T13:39:33.741Z,11.47
2018-05-10T13:42:02.808Z,12.93
2018-05-10T13:44:32.390Z,11.10
2018-05-10T13:47:01.473Z,7.17
2018-05-10T13:49:30.391Z,7.73
2018-05-10T13:51:59.382Z,8.33
2018-05-10T13:54:28.471Z,11.63
2018-05-10T13:56:57.481Z,11.07
2018-05-10T13:59:27.030Z,8.10
2018-05-10T14:01:56.094Z,8.17
2018-05-10T14:04:25.859Z,14.23
2018-05-10T14:06:55.434Z,12.97
2018-05-10T14:09:24.250Z,10.83
2018-05-10T14:11:53.256Z,12.87
2018-05-10T14:14:23.326Z,9.67
2018-05-10T14:16:52.606Z,12.03
2018-05-10T14:19:21.422Z,15.00
2018-05-10T14:21:50.455Z,12.43
2018-05-10T14:24:19.476Z,16.00
2018-05-10T14:26:48.270Z,15.53
2018-05-10T14:29:17.920Z,13.57
2018-05-10T14:31:46.816Z,14.87
2018-05-10T14:34:15.570Z,14.53
2018-05-10T14:36:44.341Z,8.57
2018-05-10T14:39:13.339Z,15.43
2018-05-10T14:41:42.084Z,13.27
2018-05-10T14:44:10.925Z,13.37
2018-05-10T14:46:40.104Z,12.23
2018-05-10T14:49:09.097Z,12.43
2018-05-10T14:51:37.928Z,18.87
2018-05-10T14:54:07.962Z,12.10
2018-05-10T14:56:37.832Z,8.87
2018-05-10T14:59:06.578Z,11.57
2018-05-10T15:01:35.451Z,11.20
2018-05-10T15:04:04.345Z,10.10
2018-05-10T15:06:33.190Z,13.20
2018-05-10T15:09:02.080Z,10.90
2018-05-10T15:11:31.147Z,17.03
2018-05-10T15:13:59.983Z,15.13
2018-05-10T15:16:28.933Z,14.23
2018-05-10T15:18:57.832Z,18.30
2018-05-10T15:21:26.985Z,20.43
2018-05-10T15:23:56.719Z,22.63
2018-05-10T15:26:26.326Z,17.77
2018-05-10T15:28:56.140Z,20.60
2018-05-10T15:31:25.141Z,17.80
2018-05-10T15:33:54.098Z,16.43
2018-05-10T15:36:23.132Z,17.63
2018-05-10T15:38:51.968Z,24.60
2018-05-10T15:41:20.804Z,18.40
2018-05-10T15:43:50.472Z,17.23
2018-05-10T15:46:19.325Z,20.07
2018-05-10T15:51:32.065Z,12.83
2018-05-10T15:54:00.923Z,20.33
2018-05-10T15:56:30.005Z,12.60
2018-05-10T15:58:59.234Z,13.63
2018-05-10T16:01:28.604Z,13.00
2018-05-10T16:04:01.336Z,11.93
2018-05-10T16:06:30.146Z,12.67
2018-05-10T16:08:59.233Z,21.60
2018-05-10T16:11:31.222Z,18.50
2018-05-10T16:14:02.533Z,19.77
2018-05-10T16:16:31.459Z,18.47
2018-05-10T16:19:00.515Z,21.07
2018-05-10T16:21:29.435Z,17.30
2018-05-10T16:23:58.197Z,18.00
2018-05-10T16:26:27.168Z,16.83
2018-05-10T16:28:56.016Z,19.90
2018-05-10T16:31:24.891Z,17.03
2018-05-10T16:33:53.726Z,16.77
2018-05-10T16:36:23.699Z,20.13
2018-05-10T16:38:53.471Z,18.73
2018-05-10T16:41:22.273Z,21.67
2018-05-10T16:43:51.092Z,21.30
2018-05-10T16:46:19.997Z,23.30
2018-05-10T16:48:49.610Z,22.03
2018-05-10T16:51:19.238Z,20.90
2018-05-10T16:53:48.849Z,25.93
2018-05-10T16:56:17.723Z,22.73
2018-05-10T16:58:46.873Z,23.33
2018-05-10T17:01:16.634Z,31.20
2018-05-10T17:03:45.763Z,35.23
2018-05-10T17:06:15.112Z,57.37
2018-05-10T17:08:44.791Z,61.47
2018-05-10T17:11:13.640Z,48.77
2018-05-10T17:13:42.682Z,42.10
2018-05-10T17:16:11.663Z,49.07
2018-05-10T17:18:40.563Z,57.87
2018-05-10T17:21:09.730Z,46.13
2018-05-10T17:23:39.021Z,44.77
2018-05-10T17:26:07.926Z,53.13
2018-05-10T17:28:37.587Z,37.83
2018-05-10T17:31:06.475Z,35.67
2018-05-10T17:33:35.315Z,30.87
2018-05-10T17:36:04.336Z,30.17
2018-05-10T17:38:36.624Z,28.80
2018-05-10T17:41:08.907Z,32.47
2018-05-10T17:43:43.563Z,33.43
2018-05-10T17:46:12.482Z,41.40
2018-05-10T17:48:41.265Z,40.23
2018-05-10T17:51:09.983Z,37.53
2018-05-10T17:53:38.790Z,38.47
2018-05-10T17:56:08.613Z,35.10
2018-05-10T17:58:38.160Z,29.87
2018-05-10T18:01:07.336Z,33.03
2018-05-10T18:03:36.502Z,32.27
2018-05-10T18:06:05.859Z,37.40
2018-05-10T18:08:35.838Z,37.37
2018-05-10T18:11:04.714Z,35.37
2018-05-10T18:13:33.560Z,35.57
2018-05-10T18:16:02.363Z,42.10
2018-05-10T18:18:31.357Z,45.63
2018-05-10T18:21:00.178Z,42.13
2018-05-10T18:23:29.049Z,38.13
2018-05-10T18:25:57.920Z,37.93
2018-05-10T18:28:26.826Z,42.53
2018-05-10T18:30:55.821Z,38.23
2018-05-10T18:33:24.762Z,40.07
2018-05-10T18:35:54.593Z,34.37
2018-05-10T18:38:23.550Z,36.30
2018-05-10T18:40:52.762Z,33.40
2018-05-10T18:43:21.580Z,36.37
2018-05-10T18:45:50.645Z,37.03
2018-05-10T19:01:19.664Z,37.33
2018-05-10T19:03:48.670Z,34.40
2018-05-10T19:06:17.745Z,37.30
2018-05-10T19:08:46.920Z,37.70
2018-05-10T19:11:16.391Z,39.53
2018-05-10T19:13:45.359Z,44.07
2018-05-10T19:16:14.225Z,43.40
2018-05-10T19:18:43.911Z,40.70
2018-05-10T19:21:12.853Z,43.00
2018-05-10T19:23:41.711Z,48.60
2018-05-10T19:26:10.613Z,43.93
2018-05-10T19:28:40.236Z,49.37
2018-05-10T19:31:09.363Z,48.03
2018-05-10T19:33:38.277Z,48.97
2018-05-10T19:36:07.926Z,46.33
2018-05-10T19:38:36.951Z,49.10
2018-05-10T19:41:06.145Z,55.83
2018-05-10T19:43:36.174Z,47.83
2018-05-10T19:46:05.087Z,53.37
2018-05-10T19:48:33.979Z,49.93
2018-05-10T19:51:02.956Z,49.53
2018-05-10T19:53:32.014Z,49.33
2018-05-10T19:56:01.691Z,70.40
2018-05-10T19:58:31.467Z,56.97
2018-05-10T20:01:00.433Z,56.70
2018-05-10T20:03:29.393Z,51.83
2018-05-10T20:05:59.476Z,55.57
2018-05-10T20:08:29.480Z,49.23
2018-05-10T20:10:58.869Z,49.43
2018-05-10T20:13:27.930Z,52.77
2018-05-10T20:15:57.087Z,58.97
2018-05-10T20:18:25.944Z,50.10
2018-05-10T20:20:54.841Z,51.67
2018-05-10T20:23:23.782Z,52.90
2018-05-10T20:25:53.165Z,53.67
2018-05-10T20:28:22.277Z,50.83
2018-05-10T20:30:54.167Z,52.27
2018-05-10T20:33:23.777Z,54.33
2018-05-10T20:35:53.326Z,49.60
2018-05-10T20:38:22.020Z,47.53
2018-05-10T20:40:50.956Z,54.70
2018-05-10T20:43:20.651Z,49.80
2018-05-10T20:45:50.066Z,43.87
2018-05-10T20:48:20.867Z,29.07
2018-05-10T20:50:49.609Z,18.60
2018-05-10T20:53:19.245Z,15.20
2018-05-10T20:55:48.088Z,12.47
2018-05-10T20:58:16.872Z,13.77
2018-05-10T21:00:45.817Z,15.77
2018-05-10T21:03:14.717Z,16.47
2018-05-10T21:05:43.557Z,19.33
2018-05-10T21:08:13.091Z,16.63
2018-05-10T21:10:42.779Z,23.50
2018-05-10T21:13:13.606Z,26.73
2018-05-10T21:15:43.526Z,37.57
2018-05-10T21:18:12.289Z,41.23
2018-05-10T21:20:41.081Z,46.23
2018-05-10T21:23:10.569Z,56.80
2018-05-10T21:25:39.571Z,61.90
2018-05-10T21:28:09.102Z,53.60
2018-05-10T21:30:38.658Z,53.03
2018-05-10T21:33:07.562Z,50.53
2018-05-10T21:35:36.415Z,38.80
2018-05-10T21:38:05.940Z,45.03
2018-05-10T21:40:34.747Z,42.83
2018-05-10T21:43:03.735Z,36.17
2018-05-10T21:45:32.501Z,40.63
2018-05-10T21:48:02.296Z,37.27
2018-05-10T21:50:32.030Z,41.13
2018-05-10T21:53:00.802Z,42.30
2018-05-10T21:55:29.641Z,42.60
2018-05-10T21:57:58.537Z,34.20
2018-05-10T22:00:27.268Z,33.33
2018-05-10T22:02:55.982Z,37.60
2018-05-10T22:05:24.802Z,48.00
2018-05-10T22:07:53.786Z,52.50
2018-05-10T22:10:22.588Z,38.63
2018-05-10T22:12:51.388Z,38.83
2018-05-10T22:15:20.243Z,41.97
2018-05-10T22:17:49.318Z,41.33
2018-05-10T22:20:18.296Z,40.23
2018-05-10T22:22:47.241Z,40.07
2018-05-10T22:25:15.916Z,46.83
2018-05-10T22:27:44.821Z,51.40
2018-05-10T22:30:14.447Z,47.53
2018-05-10T22:32:43.196Z,47.83
2018-05-10T22:35:11.894Z,66.47
2018-05-10T22:37:41.505Z,62.87
2018-05-10T22:40:10.489Z,54.50
2018-05-10T22:42:39.212Z,40.87
2018-05-10T22:45:08.666Z,42.57
2018-05-10T22:47:37.665Z,42.43
2018-05-10T22:50:06.533Z,39.47
2018-05-10T22:52:35.392Z,42.97
2018-05-10T22:55:04.282Z,45.13
2018-05-10T22:57:33.144Z,41.30
2018-05-10T23:00:02.010Z,44.67
2018-05-10T23:02:30.592Z,44.43
2018-05-10T23:04:59.439Z,45.33
2018-05-10T23:07:28.292Z,40.67
2018-05-10T23:09:57.086Z,38.70
2018-05-10T23:12:25.932Z,40.03
2018-05-10T23:14:54.711Z,39.10
2018-05-10T23:17:23.523Z,44.97
2018-05-10T23:19:52.322Z,56.27
2018-05-10T23:22:21.125Z,52.63
2018-05-10T23:24:50.865Z,37.83
2018-05-10T23:27:19.757Z,36.27
2018-05-10T23:29:48.643Z,41.30
2018-05-10T23:32:17.539Z,37.53
2018-05-10T23:34:47.178Z,37.60
2018-05-10T23:37:16.829Z,50.97
2018-05-10T23:39:45.841Z,57.60
2018-05-10T23:42:14.631Z,39.63
2018-05-10T23:44:43.454Z,35.67
2018-05-10T23:47:12.964Z,41.63
2018-05-10T23:49:42.505Z,37.97
2018-05-10T23:52:11.345Z,42.27
2018-05-10T23:54:40.402Z,36.13
2018-05-10T23:57:11.156Z,40.63
2018-05-10T23:59:39.949Z,39.10
